Time;durP1;ratioP1;P1;durP2;ratioP2;P2;SDS_P1;SDS_P2;PMS_P1;PMS_P2;Temp;Humidity;BMP_temperature;BMP_pressure;BME280_temperature;BME280_humidity;BME280_pressure;Samples;Min_cycle;Max_cycle;Signal;HPM_P1;HPM_P2
2023/11/05 00:01:17;;;;;;;1.95;1.30;;;;;;;9.83;84.41;94892.78;5054073;28;20471;-71
2023/11/05 00:03:43;;;;;;;1.55;1.35;;;;;;;9.84;84.51;94897.06;5037511;28;20032;-70
2023/11/05 00:06:09;;;;;;;1.52;1.42;;;;;;;9.81;84.45;94895.78;5071641;28;20045;-70
2023/11/05 00:08:35;;;;;;;1.92;1.60;;;;;;;9.75;84.57;94892.47;5054074;28;20016;-70
2023/11/05 00:11:00;;;;;;;2.42;1.52;;;;;;;9.73;84.64;94892.00;5071928;28;20028;-70
2023/11/05 00:13:25;;;;;;;1.73;1.58;;;;;;;9.75;84.81;94889.78;5071765;28;20438;-70
2023/11/05 00:15:54;;;;;;;2.05;1.48;;;;;;;9.74;84.79;94890.13;5071442;28;20044;-70
2023/11/05 00:18:20;;;;;;;2.67;1.63;;;;;;;9.77;84.68;94894.88;5080642;28;20024;-70
2023/11/05 00:20:45;;;;;;;1.77;1.67;;;;;;;9.80;84.64;94898.81;5071824;28;20040;-70
2023/11/05 00:23:11;;;;;;;2.58;1.48;;;;;;;9.80;84.53;94896.13;5053767;28;20024;-70
2023/11/05 00:25:37;;;;;;;2.65;1.65;;;;;;;9.84;84.25;94897.84;5071398;28;20539;-70
2023/11/05 00:28:03;;;;;;;2.45;1.38;;;;;;;9.74;84.47;94874.78;5053803;28;20372;-70
2023/11/05 00:30:28;;;;;;;1.92;1.75;;;;;;;9.81;84.31;94878.88;5053677;28;20043;-70
2023/11/05 00:32:54;;;;;;;1.85;1.45;;;;;;;9.73;84.06;94861.69;5071588;28;20056;-69
2023/11/05 00:35:19;;;;;;;1.80;1.48;;;;;;;9.69;84.09;94864.22;5053026;28;20128;-70
2023/11/05 00:37:44;;;;;;;2.78;1.50;;;;;;;9.60;84.27;94863.44;5037879;28;20031;-72
2023/11/05 00:40:10;;;;;;;2.78;1.70;;;;;;;9.59;84.09;94856.47;5037138;28;20064;-71
2023/11/05 00:42:36;;;;;;;3.40;1.67;;;;;;;9.56;84.01;94864.41;5037020;28;20024;-71
2023/11/05 00:45:01;;;;;;;2.20;1.73;;;;;;;9.51;84.08;94864.56;5036726;28;20032;-71
2023/11/05 00:47:26;;;;;;;2.20;1.55;;;;;;;9.54;83.71;94875.47;5053649;28;20460;-71
2023/11/05 00:49:52;;;;;;;1.85;1.52;;;;;;;9.50;83.58;94869.16;5036702;28;20472;-70
2023/11/05 00:52:17;;;;;;;1.67;1.58;;;;;;;9.47;83.82;94869.00;5071620;28;20023;-71
2023/11/05 00:54:43;;;;;;;2.05;1.45;;;;;;;9.46;83.77;94870.09;5053453;28;20040;-70
2023/11/05 00:57:08;;;;;;;1.90;1.52;;;;;;;9.44;83.68;94867.75;5037439;28;20025;-71
2023/11/05 00:59:34;;;;;;;1.77;1.40;;;;;;;9.43;83.62;94874.22;5037074;28;20121;-71
2023/11/05 01:02:00;;;;;;;2.95;1.63;;;;;;;9.40;83.53;94858.75;5053681;28;20024;-73
2023/11/05 01:04:25;;;;;;;1.63;1.38;;;;;;;9.34;83.92;94860.00;5053479;28;20356;-71
2023/11/05 01:06:51;;;;;;;1.65;1.20;;;;;;;9.35;83.92;94856.22;5053531;28;20144;-71
2023/11/05 01:09:16;;;;;;;1.48;1.20;;;;;;;9.29;83.67;94844.06;5037001;28;20043;-71
2023/11/05 01:11:42;;;;;;;1.50;1.40;;;;;;;9.33;83.77;94850.38;5071558;28;20103;-70
2023/11/05 01:14:08;;;;;;;2.67;1.27;;;;;;;9.33;83.33;94847.69;5053060;28;20499;-72
2023/11/05 01:16:33;;;;;;;1.20;1.17;;;;;;;9.35;83.31;94845.47;5033370;28;20025;-72
2023/11/05 01:18:58;;;;;;;2.05;1.10;;;;;;;9.35;83.22;94842.00;5053006;28;20503;-72
2023/11/05 01:21:24;;;;;;;1.30;1.20;;;;;;;9.35;83.04;94840.13;5054221;28;20021;-72
2023/11/05 01:23:50;;;;;;;1.50;1.20;;;;;;;9.31;83.09;94833.78;5038175;28;20037;-72
2023/11/05 01:26:16;;;;;;;1.15;1.10;;;;;;;9.27;82.98;94824.00;5072637;28;20021;-72
2023/11/05 01:28:41;;;;;;;1.48;1.20;;;;;;;9.33;83.17;94830.78;5054550;28;20024;-72
2023/11/05 01:31:06;;;;;;;1.30;1.20;;;;;;;9.31;82.97;94828.41;5088456;28;20399;-72
2023/11/05 01:33:32;;;;;;;2.97;1.05;;;;;;;9.34;83.16;94824.31;5037891;28;20127;-71
2023/11/05 01:35:58;;;;;;;1.33;1.20;;;;;;;9.33;82.86;94817.38;5072064;28;20392;-73
2023/11/05 01:38:23;;;;;;;1.42;1.13;;;;;;;9.31;82.84;94820.34;5037211;28;20100;-71
2023/11/05 01:40:49;;;;;;;1.60;1.00;;;;;;;9.27;83.00;94811.38;5054355;28;20028;-72
2023/11/05 01:43:14;;;;;;;1.17;1.08;;;;;;;9.30;82.55;94805.38;5052934;28;20522;-70
2023/11/05 01:45:39;;;;;;;1.40;1.08;;;;;;;9.32;82.20;94795.09;5054645;28;20168;-71
2023/11/05 01:48:05;;;;;;;0.90;0.90;;;;;;;9.33;82.61;94799.38;5056759;28;20115;-71
2023/11/05 01:50:31;;;;;;;1.67;0.90;;;;;;;9.31;81.97;94782.00;5039965;28;20053;-71
2023/11/05 01:52:58;;;;;;;0.90;0.90;;;;;;;9.31;82.28;94782.75;5076468;28;20103;-71
2023/11/05 01:55:23;;;;;;;1.10;0.95;;;;;;;9.34;82.07;94774.06;5063201;28;20028;-70
2023/11/05 01:57:49;;;;;;;0.88;0.80;;;;;;;9.36;82.00;94769.16;5053247;28;20116;-70
2023/11/05 02:00:15;;;;;;;1.85;0.90;;;;;;;9.36;81.60;94760.34;5053282;28;20029;-70
2023/11/05 02:02:41;;;;;;;1.35;1.02;;;;;;;9.34;81.58;94767.91;5075758;28;20119;-71
2023/11/05 02:05:08;;;;;;;1.23;0.98;;;;;;;9.28;81.61;94759.25;5076181;28;20024;-70
2023/11/05 02:07:34;;;;;;;1.58;0.93;;;;;;;9.35;81.63;94770.28;5059886;28;20042;-70
2023/11/05 02:09:59;;;;;;;2.17;1.08;;;;;;;9.34;81.64;94760.66;5081413;28;20123;-70
2023/11/05 02:12:25;;;;;;;1.08;0.98;;;;;;;9.37;81.56;94767.28;5056034;28;20035;-71
2023/11/05 02:14:51;;;;;;;1.52;1.15;;;;;;;9.34;81.34;94767.91;5056014;28;20029;-72
2023/11/05 02:17:18;;;;;;;1.58;1.17;;;;;;;9.22;81.88;94752.47;5040373;28;20483;-71
2023/11/05 02:19:43;;;;;;;1.30;1.10;;;;;;;9.32;81.67;94760.19;5063213;28;20479;-71
2023/11/05 02:22:14;;;;;;;1.13;1.02;;;;;;;9.21;81.29;94726.75;5056046;28;20036;-71
2023/11/05 02:24:43;;;;;;;0.95;0.95;;;;;;;9.20;81.03;94713.63;5056469;28;20038;-71
2023/11/05 02:27:09;;;;;;;1.23;0.80;;;;;;;9.36;81.30;94728.88;5039432;28;20033;-72
2023/11/05 02:29:35;;;;;;;0.90;0.90;;;;;;;9.38;81.28;94740.09;5039398;28;20111;-72
2023/11/05 02:32:03;;;;;;;1.30;0.85;;;;;;;9.31;81.25;94726.38;5039402;28;20066;-72
2023/11/05 02:34:28;;;;;;;1.05;0.82;;;;;;;9.36;81.24;94745.00;5072567;28;20056;-71
2023/11/05 02:36:53;;;;;;;1.08;0.88;;;;;;;9.35;80.98;94738.06;5055831;28;20071;-70
2023/11/05 02:39:19;;;;;;;1.10;1.00;;;;;;;9.38;80.92;94744.69;5055743;28;20499;-70
2023/11/05 02:41:45;;;;;;;1.42;0.90;;;;;;;9.34;80.97;94747.22;5055538;28;20021;-71
2023/11/05 02:44:11;;;;;;;1.30;1.20;;;;;;;9.37;80.73;94746.59;5055317;28;20123;-71
2023/11/05 02:46:36;;;;;;;1.10;0.80;;;;;;;9.35;80.74;94748.81;5038999;28;20452;-72
2023/11/05 02:49:02;;;;;;;1.02;0.90;;;;;;;9.38;80.53;94737.41;5038973;28;20048;-72
2023/11/05 02:51:28;;;;;;;1.52;0.90;;;;;;;9.34;80.51;94735.69;5055409;28;20028;-71
2023/11/05 02:53:53;;;;;;;0.90;0.80;;;;;;;9.29;80.64;94728.59;5073214;28;20047;-71
2023/11/05 02:56:19;;;;;;;1.40;1.00;;;;;;;9.30;80.56;94730.19;5061693;28;20051;-71
2023/11/05 02:58:44;;;;;;;1.67;0.80;;;;;;;9.27;80.76;94736.19;5075082;28;20036;-70
2023/11/05 03:01:10;;;;;;;1.15;0.73;;;;;;;9.23;80.56;94729.91;5075419;28;20024;-70
2023/11/05 03:03:36;;;;;;;0.85;0.75;;;;;;;9.26;80.57;94709.66;5080011;28;20036;-71
2023/11/05 03:06:01;;;;;;;1.70;0.90;;;;;;;9.25;80.48;94716.94;5038771;28;20486;-70
2023/11/05 03:08:27;;;;;;;0.80;0.80;;;;;;;9.24;80.55;94725.31;5055901;28;20043;-70
2023/11/05 03:10:52;;;;;;;0.80;0.80;;;;;;;9.27;80.73;94720.09;5068242;28;20094;-72
2023/11/05 03:13:17;;;;;;;2.28;0.95;;;;;;;9.25;80.62;94716.13;5086501;28;20063;-72
2023/11/05 03:15:43;;;;;;;1.30;0.70;;;;;;;9.26;80.41;94715.84;5062080;28;20031;-72
2023/11/05 03:18:08;;;;;;;1.08;0.90;;;;;;;9.28;80.34;94707.44;5044778;28;20395;-72
2023/11/05 03:20:33;;;;;;;0.82;0.82;;;;;;;9.29;80.17;94701.75;5062338;28;20034;-71
2023/11/05 03:22:59;;;;;;;0.60;0.60;;;;;;;9.28;80.13;94702.88;5093472;28;20098;-72
2023/11/05 03:25:25;;;;;;;1.20;0.80;;;;;;;9.28;80.09;94700.19;5086314;28;20024;-72
2023/11/05 03:27:51;;;;;;;1.95;0.70;;;;;;;9.33;79.88;94700.03;5052408;28;20097;-71
2023/11/05 03:30:17;;;;;;;0.80;0.75;;;;;;;9.24;79.61;94683.13;5073218;28;20021;-71
2023/11/05 03:32:42;;;;;;;0.95;0.65;;;;;;;9.31;79.79;94683.41;5068498;28;20110;-72
2023/11/05 03:35:09;;;;;;;1.13;0.90;;;;;;;9.42;79.62;94690.03;5061465;28;20028;-72
2023/11/05 03:37:35;;;;;;;1.75;0.73;;;;;;;9.45;79.46;94689.34;5075111;28;20115;-72
2023/11/05 03:40:00;;;;;;;0.88;0.70;;;;;;;9.51;79.35;94693.47;5055791;28;20128;-72
2023/11/05 03:42:26;;;;;;;1.58;0.70;;;;;;;9.52;78.93;94700.38;5087915;28;20471;-72
2023/11/05 03:44:51;;;;;;;1.85;0.63;;;;;;;9.49;79.25;94693.00;5073519;28;20027;-72
2023/11/05 03:47:17;;;;;;;2.35;0.80;;;;;;;9.60;78.99;94706.84;5085540;28;20040;-72
2023/11/05 03:49:43;;;;;;;1.95;0.70;;;;;;;9.62;78.99;94694.66;5073329;28;20032;-71
2023/11/05 03:52:09;;;;;;;1.60;0.75;;;;;;;9.56;79.03;94679.06;5037929;28;20072;-71
2023/11/05 03:54:34;;;;;;;1.92;0.70;;;;;;;9.67;78.96;94694.47;5085927;28;20035;-72
2023/11/05 03:57:00;;;;;;;1.35;0.80;;;;;;;9.65;78.91;94694.03;5048619;28;20039;-71
2023/11/05 03:59:26;;;;;;;1.52;0.88;;;;;;;9.68;79.02;94687.97;5068912;28;20359;-72
2023/11/05 04:01:52;;;;;;;1.17;0.88;;;;;;;9.65;79.54;94683.28;5054564;28;20480;-72
2023/11/05 04:04:17;;;;;;;1.33;1.00;;;;;;;9.62;79.21;94683.91;5034594;28;20021;-72
2023/11/05 04:06:43;;;;;;;0.82;0.70;;;;;;;9.68;79.18;94679.91;5046730;28;20450;-72
2023/11/05 04:09:08;;;;;;;2.15;0.85;;;;;;;9.43;78.96;94637.88;5072255;28;20561;-72
2023/11/05 04:11:35;;;;;;;1.05;0.70;;;;;;;9.70;78.76;94685.00;5073403;28;20098;-71
2023/11/05 04:14:00;;;;;;;0.80;0.80;;;;;;;9.65;78.81;94667.16;5039020;28;20467;-72
2023/11/05 04:16:26;;;;;;;0.70;0.70;;;;;;;9.71;78.43;94675.81;5054654;28;20112;-72
2023/11/05 04:18:51;;;;;;;0.80;0.80;;;;;;;9.75;77.91;94663.31;5054520;28;20028;-70
2023/11/05 04:21:18;;;;;;;0.70;0.70;;;;;;;9.68;78.24;94645.00;5037892;28;20036;-71
2023/11/05 04:23:44;;;;;;;1.70;0.80;;;;;;;9.72;78.13;94645.16;5040123;28;20158;-72
2023/11/05 04:26:11;;;;;;;0.90;0.80;;;;;;;9.79;78.04;94642.72;5074500;28;20062;-72
2023/11/05 04:28:36;;;;;;;0.85;0.80;;;;;;;9.81;77.82;94647.78;5092186;28;20020;-71
2023/11/05 04:31:02;;;;;;;1.40;0.80;;;;;;;9.80;77.99;94640.84;5072263;28;20047;-71
2023/11/05 04:33:27;;;;;;;1.38;0.80;;;;;;;9.75;77.90;94639.91;5054040;28;20021;-72
2023/11/05 04:35:53;;;;;;;3.00;1.00;;;;;;;9.84;77.64;94639.88;5053497;28;20050;-71
2023/11/05 04:38:18;;;;;;;0.95;0.70;;;;;;;9.81;77.31;94634.34;5071840;28;20056;-71
2023/11/05 04:40:44;;;;;;;2.60;0.70;;;;;;;9.90;77.44;94635.06;5072284;28;20037;-71
2023/11/05 04:43:09;;;;;;;1.33;0.70;;;;;;;9.90;77.67;94629.69;5053897;28;20468;-71
2023/11/05 04:45:35;;;;;;;1.05;0.80;;;;;;;9.77;77.57;94611.94;5083201;28;20035;-71
2023/11/05 04:48:01;;;;;;;0.90;0.90;;;;;;;9.84;78.08;94633.69;5073377;28;20448;-71
2023/11/05 04:50:27;;;;;;;1.20;0.80;;;;;;;9.77;78.41;94610.03;5053806;28;20044;-71
2023/11/05 04:52:53;;;;;;;2.35;0.90;;;;;;;9.87;78.35;94630.38;5054012;28;20021;-71
2023/11/05 04:55:18;;;;;;;1.38;0.90;;;;;;;9.79;78.63;94601.63;5071656;28;20036;-71
2023/11/05 04:57:44;;;;;;;1.05;0.93;;;;;;;9.82;78.57;94617.13;5065803;28;20021;-71
2023/11/05 05:00:10;;;;;;;1.52;0.82;;;;;;;9.78;78.60;94602.75;5053994;28;20043;-71
2023/11/05 05:02:37;;;;;;;0.80;0.80;;;;;;;9.79;78.78;94604.31;5091588;28;20028;-72
2023/11/05 05:05:03;;;;;;;2.03;0.90;;;;;;;9.80;78.62;94592.47;5039725;28;20071;-71
2023/11/05 05:07:28;;;;;;;2.67;0.80;;;;;;;9.74;78.80;94595.34;5054114;28;20048;-71
2023/11/05 05:09:54;;;;;;;3.85;0.70;;;;;;;9.78;78.71;94592.78;5037500;28;20033;-71
2023/11/05 05:12:21;;;;;;;0.70;0.70;;;;;;;9.82;78.80;94596.41;5054128;28;20024;-72
2023/11/05 05:14:48;;;;;;;2.30;0.80;;;;;;;9.86;78.62;94599.22;5065531;28;20442;-71
2023/11/05 05:17:15;;;;;;;1.90;1.10;;;;;;;9.88;78.51;94599.66;5055466;28;20083;-71
2023/11/05 05:19:41;;;;;;;5.18;1.95;;;;;;;9.87;78.72;94598.13;5054191;28;20039;-72
2023/11/05 05:22:06;;;;;;;2.58;1.33;;;;;;;9.84;78.85;94599.56;5062776;28;20024;-70
2023/11/05 05:24:33;;;;;;;1.98;1.20;;;;;;;9.83;79.11;94597.16;5095001;28;20038;-71
2023/11/05 05:26:58;;;;;;;2.70;1.30;;;;;;;9.90;79.00;94608.19;5077232;28;20024;-70
2023/11/05 05:29:23;;;;;;;2.20;1.50;;;;;;;9.89;79.01;94601.25;5088823;28;20063;-71
2023/11/05 05:31:49;;;;;;;6.72;5.10;;;;;;;9.85;79.21;94589.59;5063428;28;20106;-71
2023/11/05 05:34:15;;;;;;;1.25;1.15;;;;;;;9.86;79.23;94596.53;5061007;28;20381;-70
2023/11/05 05:36:40;;;;;;;2.95;2.33;;;;;;;9.87;79.44;94598.13;5075444;28;20024;-69
2023/11/05 05:39:07;;;;;;;4.20;2.33;;;;;;;9.91;79.04;94599.81;5075262;28;20385;-71
2023/11/05 05:41:33;;;;;;;1.88;1.00;;;;;;;9.82;78.83;94584.88;5089118;28;20021;-70
2023/11/05 05:43:58;;;;;;;2.53;1.00;;;;;;;9.93;78.41;94591.41;5041080;28;20697;-71
2023/11/05 05:46:23;;;;;;;2.70;1.00;;;;;;;9.88;78.82;94588.91;5088885;28;20027;-71
2023/11/05 05:48:49;;;;;;;2.40;0.90;;;;;;;9.92;78.77;94592.53;5056891;28;20028;-71
2023/11/05 05:51:14;;;;;;;1.52;1.00;;;;;;;9.93;78.71;94591.41;5040005;28;20115;-70
2023/11/05 05:53:40;;;;;;;3.28;1.10;;;;;;;9.94;78.55;94590.31;5086263;28;20080;-70
2023/11/05 05:56:05;;;;;;;2.22;1.40;;;;;;;9.96;78.49;94590.78;5063086;28;20441;-71
2023/11/05 05:58:31;;;;;;;2.17;1.23;;;;;;;9.86;78.11;94572.34;5064868;28;20039;-71
2023/11/05 06:00:57;;;;;;;2.53;1.02;;;;;;;10.03;77.93;94582.97;5069918;28;20032;-71
2023/11/05 06:03:22;;;;;;;3.08;1.50;;;;;;;10.03;77.66;94580.28;5057050;28;20135;-72
2023/11/05 06:05:48;;;;;;;2.13;1.00;;;;;;;10.07;77.42;94573.13;5056109;28;20139;-71
2023/11/05 06:08:13;;;;;;;2.28;0.80;;;;;;;10.05;77.08;94573.47;5063041;28;20029;-71
2023/11/05 06:10:38;;;;;;;1.20;0.90;;;;;;;10.07;76.75;94575.81;5072404;28;20440;-71
2023/11/05 06:13:04;;;;;;;1.58;0.80;;;;;;;10.11;76.54;94580.22;5074284;28;20037;-71
2023/11/05 06:15:29;;;;;;;2.60;1.15;;;;;;;10.02;76.27;94570.63;5073838;28;20074;-70
2023/11/05 06:17:56;;;;;;;1.20;1.00;;;;;;;10.13;76.26;94579.88;5074099;28;20395;-71
2023/11/05 06:20:21;;;;;;;4.30;1.17;;;;;;;10.18;75.97;94590.44;5056272;28;20035;-70
2023/11/05 06:22:47;;;;;;;3.28;1.20;;;;;;;10.17;75.60;94578.13;5074343;28;20115;-71
2023/11/05 06:25:12;;;;;;;2.47;1.00;;;;;;;10.17;75.57;94586.19;5039343;28;20107;-70
2023/11/05 06:27:38;;;;;;;2.85;1.00;;;;;;;10.15;75.58;94583.06;5056398;28;20033;-70
2023/11/05 06:30:08;;;;;;;1.33;0.82;;;;;;;10.19;74.75;94594.72;5074232;28;20029;-70
2023/11/05 06:32:33;;;;;;;1.40;0.90;;;;;;;10.18;74.83;94577.78;5072673;28;20047;-70
2023/11/05 06:34:59;;;;;;;2.70;1.05;;;;;;;10.28;74.57;94598.09;5055545;28;20025;-70
2023/11/05 06:37:24;;;;;;;2.20;0.90;;;;;;;10.34;74.53;94602.94;5073713;28;20044;-70
2023/11/05 06:39:50;;;;;;;1.42;1.05;;;;;;;10.36;74.19;94610.72;5039109;28;20033;-71
2023/11/05 06:42:16;;;;;;;1.67;0.90;;;;;;;10.41;74.45;94607.78;5055809;28;20036;-70
2023/11/05 06:44:41;;;;;;;1.52;1.15;;;;;;;10.41;74.66;94603.19;5055357;28;20122;-71
2023/11/05 06:47:07;;;;;;;2.03;1.35;;;;;;;10.44;74.49;94604.44;5073613;28;20033;-70
2023/11/05 06:49:32;;;;;;;2.35;1.20;;;;;;;10.43;74.18;94613.66;5050126;28;20021;-70
2023/11/05 06:51:58;;;;;;;4.10;1.30;;;;;;;10.46;74.15;94614.88;5064600;28;20036;-70
2023/11/05 06:54:23;;;;;;;1.50;1.30;;;;;;;10.51;74.16;94618.16;5073076;28;20031;-70
2023/11/05 06:56:49;;;;;;;2.17;1.10;;;;;;;10.56;73.87;94620.63;5073348;28;20032;-71
2023/11/05 06:59:14;;;;;;;2.38;1.27;;;;;;;10.56;73.70;94625.22;5072821;28;20406;-70
2023/11/05 07:01:39;;;;;;;2.38;1.30;;;;;;;10.62;73.64;94631.97;5093391;28;20040;-71
2023/11/05 07:04:05;;;;;;;1.52;1.38;;;;;;;10.62;73.78;94634.69;5075368;28;20027;-71
2023/11/05 07:06:30;;;;;;;2.85;1.20;;;;;;;10.58;73.58;94637.22;5075111;28;20071;-71
2023/11/05 07:08:56;;;;;;;5.57;2.22;;;;;;;10.63;73.84;94631.66;5093897;28;20467;-71
2023/11/05 07:11:21;;;;;;;3.88;2.00;;;;;;;10.63;73.91;94642.41;5094021;28;20051;-72
2023/11/05 07:13:46;;;;;;;2.25;1.55;;;;;;;10.67;73.46;94640.63;5075468;28;20024;-71
2023/11/05 07:16:12;;;;;;;2.28;1.63;;;;;;;10.69;73.69;94646.44;5093423;28;20044;-72
2023/11/05 07:18:37;;;;;;;2.00;1.00;;;;;;;10.66;73.12;94646.34;5093474;28;20522;-70
2023/11/05 07:21:03;;;;;;;2.60;1.40;;;;;;;10.67;73.50;94647.91;5075376;28;20048;-72
2023/11/05 07:23:28;;;;;;;3.70;1.98;;;;;;;10.70;73.05;94644.56;5092349;28;20102;-71
2023/11/05 07:25:54;;;;;;;8.20;4.90;;;;;;;10.64;72.57;94649.34;5062570;28;20059;-72
2023/11/05 07:28:20;;;;;;;16.25;9.50;;;;;;;10.76;72.36;94662.84;5064601;28;20553;-71
2023/11/05 07:30:45;;;;;;;66.57;29.13;;;;;;;10.78;72.23;94667.91;5050081;28;20036;-73
2023/11/05 07:33:12;;;;;;;78.93;34.28;;;;;;;10.77;72.49;94669.81;5073269;28;20021;-72
2023/11/05 07:35:39;;;;;;;127.38;52.38;;;;;;;10.73;72.58;94652.75;5069513;28;20032;-72
2023/11/05 07:38:07;;;;;;;124.93;57.88;;;;;;;10.67;72.87;94656.75;5033931;28;20029;-70
2023/11/05 07:40:33;;;;;;;170.25;68.55;;;;;;;10.78;73.00;94671.38;5072867;28;20064;-70
2023/11/05 07:42:58;;;;;;;46.78;19.05;;;;;;;10.78;72.62;94660.59;5070214;28;20028;-70
2023/11/05 07:45:24;;;;;;;65.00;24.90;;;;;;;10.85;72.34;94674.31;5075825;28;20051;-72
2023/11/05 07:47:49;;;;;;;30.50;11.45;;;;;;;10.83;73.25;94671.16;5076055;28;20463;-70
2023/11/05 07:50:15;;;;;;;5.65;2.33;;;;;;;10.81;73.55;94670.72;5072127;28;20036;-72
2023/11/05 07:52:42;;;;;;;3.35;2.10;;;;;;;10.85;73.81;94671.63;5054729;28;20020;-73
2023/11/05 07:55:11;;;;;;;2.83;1.70;;;;;;;10.87;73.76;94661.34;5054368;28;20044;-70
2023/11/05 07:57:38;;;;;;;5.45;1.98;;;;;;;10.95;73.61;94663.13;5072256;28;20028;-72
2023/11/05 08:00:04;;;;;;;2.85;1.30;;;;;;;10.99;73.41;94671.34;5054457;28;20115;-70
2023/11/05 08:02:37;;;;;;;2.00;1.30;;;;;;;11.02;73.43;94671.44;5072428;28;20028;-72
2023/11/05 08:05:03;;;;;;;5.40;1.67;;;;;;;11.03;73.27;94673.03;5071470;28;20040;-72
2023/11/05 08:07:29;;;;;;;11.55;2.10;;;;;;;11.09;73.26;94663.63;5072211;28;20122;-72
2023/11/05 08:09:54;;;;;;;4.82;1.70;;;;;;;11.13;73.42;94665.66;5072081;28;20029;-72
2023/11/05 08:12:21;;;;;;;1.88;1.40;;;;;;;11.15;73.48;94668.78;5065101;28;20028;-72
2023/11/05 08:14:46;;;;;;;5.63;2.38;;;;;;;11.17;73.22;94670.03;5071474;28;20043;-72
2023/11/05 08:17:12;;;;;;;3.65;1.33;;;;;;;11.08;73.29;94659.34;5071842;28;20032;-72
2023/11/05 08:19:37;;;;;;;4.90;1.73;;;;;;;11.18;73.01;94673.53;5068591;28;20125;-72
2023/11/05 08:22:03;;;;;;;3.47;1.35;;;;;;;11.21;72.66;94672.84;5053242;28;20032;-71
2023/11/05 08:24:28;;;;;;;4.00;1.30;;;;;;;11.24;72.50;94677.56;5071084;28;20119;-72
2023/11/05 08:26:53;;;;;;;2.90;1.10;;;;;;;11.21;72.00;94667.44;5068540;28;20482;-71
2023/11/05 08:29:19;;;;;;;5.97;1.02;;;;;;;11.25;72.00;94674.53;5053275;28;20021;-72
2023/11/05 08:31:44;;;;;;;3.10;1.30;;;;;;;11.30;71.49;94677.00;5071214;28;20381;-71
2023/11/05 08:34:10;;;;;;;4.53;1.58;;;;;;;11.27;71.25;94660.72;5071528;28;20086;-71
2023/11/05 08:36:35;;;;;;;3.78;1.55;;;;;;;11.36;71.35;94674.88;5056268;28;20032;-72
2023/11/05 08:39:03;;;;;;;2.28;1.50;;;;;;;11.35;71.57;94671.41;5071452;28;20409;-72
2023/11/05 08:41:29;;;;;;;3.22;1.50;;;;;;;10.92;71.32;94601.88;5053636;28;20020;-72
2023/11/05 08:43:54;;;;;;;3.78;1.70;;;;;;;11.40;71.30;94671.19;5071192;28;20047;-72
2023/11/05 08:46:20;;;;;;;3.97;1.50;;;;;;;11.42;71.69;94665.44;5072898;28;20024;-69
2023/11/05 08:48:45;;;;;;;3.97;1.45;;;;;;;11.45;71.15;94667.47;5072156;28;20028;-71
2023/11/05 08:51:10;;;;;;;4.07;2.40;;;;;;;11.40;71.24;94665.00;5053210;28;20484;-72
2023/11/05 08:53:36;;;;;;;4.50;2.30;;;;;;;11.50;71.38;94667.25;5053264;28;20032;-72
2023/11/05 08:56:01;;;;;;;3.65;1.98;;;;;;;11.49;71.01;94668.38;5069791;28;20086;-72
2023/11/05 08:58:27;;;;;;;3.20;1.70;;;;;;;11.45;71.75;94672.88;5052874;28;20037;-71
2023/11/05 09:00:56;;;;;;;2.75;1.45;;;;;;;11.47;71.20;94676.00;5053098;28;20032;-71
2023/11/05 09:03:24;;;;;;;1.88;1.33;;;;;;;11.42;71.38;94673.53;5070940;28;20060;-71
2023/11/05 09:05:49;;;;;;;1.95;1.30;;;;;;;11.46;71.53;94679.84;5052732;28;20024;-72
2023/11/05 09:08:15;;;;;;;2.08;1.10;;;;;;;11.44;71.57;94684.75;5053129;28;20155;-71
2023/11/05 09:10:41;;;;;;;3.45;1.55;;;;;;;11.45;71.89;94697.13;5036419;28;20028;-71
2023/11/05 09:13:07;;;;;;;3.17;1.70;;;;;;;11.36;72.39;94701.81;5053193;28;20041;-71
2023/11/05 09:15:32;;;;;;;3.47;1.33;;;;;;;11.32;72.41;94692.84;5070952;28;20029;-71
2023/11/05 09:17:58;;;;;;;4.20;1.55;;;;;;;11.24;73.26;94710.66;5054467;28;20028;-73
2023/11/05 09:20:24;;;;;;;2.30;1.00;;;;;;;11.31;73.42;94720.91;5088695;28;20036;-72
2023/11/05 09:22:49;;;;;;;4.30;1.45;;;;;;;11.18;74.87;94716.59;5088605;28;20028;-73
2023/11/05 09:25:15;;;;;;;4.22;1.10;;;;;;;11.17;75.57;94726.59;5076515;28;20023;-70
2023/11/05 09:27:40;;;;;;;3.33;1.38;;;;;;;10.93;76.96;94735.38;5073140;28;20085;-71
2023/11/05 09:30:11;;;;;;;2.05;1.40;;;;;;;10.95;78.20;94743.91;5054916;28;20031;-70
2023/11/05 09:32:38;;;;;;;4.80;2.17;;;;;;;10.93;78.73;94746.13;5065363;28;20051;-69
2023/11/05 09:35:04;;;;;;;2.13;1.27;;;;;;;10.80;79.64;94749.91;5072516;28;20368;-71
2023/11/05 09:37:29;;;;;;;2.33;1.25;;;;;;;10.80;80.25;94763.38;5071087;28;20039;-70
2023/11/05 09:39:55;;;;;;;2.22;1.30;;;;;;;10.79;80.25;94780.63;5066469;28;20039;-70
2023/11/05 09:42:21;;;;;;;2.47;1.20;;;;;;;10.63;81.45;94776.94;5071113;28;20040;-70
2023/11/05 09:44:47;;;;;;;3.80;1.15;;;;;;;10.58;82.55;94795.97;5072200;28;20024;-70
2023/11/05 09:47:13;;;;;;;3.75;1.30;;;;;;;10.59;82.97;94802.94;5091380;28;20082;-71
2023/11/05 09:49:38;;;;;;;3.17;1.33;;;;;;;10.47;83.81;94799.38;5056122;28;20461;-71
2023/11/05 09:52:07;;;;;;;3.25;1.50;;;;;;;10.62;84.18;94818.41;5073371;28;20130;-70
2023/11/05 09:54:32;;;;;;;3.38;1.65;;;;;;;10.67;84.98;94817.44;5052993;28;20039;-71
2023/11/05 09:56:58;;;;;;;5.05;1.60;;;;;;;10.71;84.93;94827.22;5070834;28;20467;-70
2023/11/05 09:59:23;;;;;;;3.45;1.50;;;;;;;10.69;85.24;94821.38;5055514;28;20032;-70
2023/11/05 10:01:53;;;;;;;3.55;1.50;;;;;;;10.68;85.45;94833.25;5072831;28;20031;-71
2023/11/05 10:04:19;;;;;;;2.85;1.60;;;;;;;10.73;85.96;94841.16;5072608;28;20043;-72
2023/11/05 10:06:44;;;;;;;2.60;1.67;;;;;;;10.75;85.91;94830.84;5092880;28;20028;-72
2023/11/05 10:09:11;;;;;;;5.18;2.10;;;;;;;10.93;85.56;94839.56;5076645;28;20059;-71
2023/11/05 10:11:36;;;;;;;3.25;2.17;;;;;;;10.93;85.79;94834.97;5076621;28;20055;-72
2023/11/05 10:14:02;;;;;;;4.57;2.20;;;;;;;11.04;85.75;94836.16;5059210;28;20083;-71
2023/11/05 10:16:27;;;;;;;2.00;1.80;;;;;;;11.02;85.80;94832.22;5056064;28;20056;-72
2023/11/05 10:18:54;;;;;;;4.75;1.85;;;;;;;10.99;85.98;94849.03;5074318;28;20040;-72
2023/11/05 10:21:20;;;;;;;3.63;1.80;;;;;;;10.96;86.05;94845.09;5056490;28;20028;-71
2023/11/05 10:23:52;;;;;;;5.50;1.70;;;;;;;10.96;85.92;94850.47;5056284;28;20043;-71
2023/11/05 10:26:28;;;;;;;4.55;2.20;;;;;;;10.88;86.79;94848.63;5073763;28;20040;-72
2023/11/05 10:28:54;;;;;;;3.65;2.00;;;;;;;10.87;86.82;94849.75;5074122;28;20115;-72
2023/11/05 10:31:24;;;;;;;7.15;3.15;;;;;;;10.76;86.99;94855.88;5055920;28;20100;-72
2023/11/05 10:33:53;;;;;;;4.57;3.00;;;;;;;10.64;87.36;94843.09;5056017;28;20148;-72
2023/11/05 10:36:20;;;;;;;7.40;3.47;;;;;;;10.64;87.69;94845.78;5061107;28;20016;-72
2023/11/05 10:38:49;;;;;;;9.13;3.20;;;;;;;10.52;88.33;94834.16;5055719;28;20078;-71
2023/11/05 10:41:18;;;;;;;6.90;5.13;;;;;;;10.62;88.11;94852.63;5073403;28;20038;-71
2023/11/05 10:43:48;;;;;;;3.75;3.30;;;;;;;10.48;89.26;94865.53;5055633;28;20135;-72
2023/11/05 10:46:16;;;;;;;4.97;2.78;;;;;;;10.50;89.29;94869.47;5073013;28;20446;-71
2023/11/05 10:48:42;;;;;;;5.15;2.38;;;;;;;10.47;89.45;94862.03;5055555;28;20025;-71
2023/11/05 10:51:08;;;;;;;6.70;3.33;;;;;;;10.54;89.56;94875.78;5062919;22;20193;-74
2023/11/05 10:53:34;;;;;;;4.55;2.10;;;;;;;10.54;89.90;94875.78;5110369;28;20488;-74
2023/11/05 10:55:59;;;;;;;3.20;2.00;;;;;;;10.53;90.08;94876.88;5077644;28;20145;-73
2023/11/05 10:58:39;;;;;;;2.60;2.40;;;;;;;10.50;90.15;94882.91;5104628;28;20048;-74
2023/11/05 11:01:13;;;;;;;4.97;2.15;;;;;;;10.57;90.55;94875.09;5076000;28;20039;-74
2023/11/05 11:03:39;;;;;;;2.42;1.73;;;;;;;10.59;90.79;94883.66;5079659;28;20047;-74
2023/11/05 11:06:05;;;;;;;3.05;2.20;;;;;;;10.62;90.85;94882.22;5068138;28;20020;-74
2023/11/05 11:08:32;;;;;;;2.88;2.20;;;;;;;10.62;91.14;94882.22;5093174;28;20028;-73
2023/11/05 11:11:11;;;;;;;3.92;2.33;;;;;;;10.69;90.58;94888.66;5075155;28;20066;-74
2023/11/05 11:13:39;;;;;;;2.65;2.25;;;;;;;10.66;91.53;94900.09;5074010;28;20070;-75
2023/11/05 11:16:05;;;;;;;2.70;1.70;;;;;;;10.77;91.22;94903.19;5069922;28;20073;-74
2023/11/05 11:18:32;;;;;;;2.92;1.95;;;;;;;10.72;91.50;94884.53;5057885;28;20047;-73
2023/11/05 11:20:58;;;;;;;2.13;1.70;;;;;;;10.75;91.19;94887.38;5058347;28;20035;-73
2023/11/05 11:23:26;;;;;;;2.67;1.80;;;;;;;10.89;91.21;94908.66;5062413;28;20040;-73
2023/11/05 11:26:01;;;;;;;4.38;1.80;;;;;;;10.88;91.21;94902.47;5065287;28;20566;-74
2023/11/05 11:28:28;;;;;;;3.13;1.80;;;;;;;10.88;91.00;94901.69;5085526;28;20040;-73
2023/11/05 11:30:54;;;;;;;2.45;2.25;;;;;;;10.96;90.94;94909.72;5074817;28;20036;-74